createdAt,value
2023-03-06T00:00:52.683Z,92.00
2023-03-06T00:03:23.378Z,92.00
2023-03-06T00:05:50.922Z,92.10
2023-03-06T00:08:18.316Z,92.10
2023-03-06T00:10:46.062Z,92.20
2023-03-06T00:13:16.359Z,92.00
2023-03-06T00:15:49.385Z,92.10
2023-03-06T00:18:16.947Z,91.90
2023-03-06T00:20:44.869Z,92.00
2023-03-06T00:23:15.554Z,91.90
2023-03-06T00:25:45.261Z,91.90
2023-03-06T00:28:15.934Z,91.90
2023-03-06T00:30:43.887Z,91.90
2023-03-06T00:33:15.062Z,91.80
2023-03-06T00:35:42.452Z,91.80
2023-03-06T00:38:14.821Z,91.90
2023-03-06T00:40:42.293Z,92.00
2023-03-06T00:43:09.620Z,92.00
2023-03-06T00:45:37.526Z,91.90
2023-03-06T00:48:07.397Z,92.00
2023-03-06T00:50:35.471Z,92.30
2023-03-06T00:53:05.933Z,92.40
2023-03-06T00:55:34.244Z,92.30
2023-03-06T00:58:04.491Z,92.50
2023-03-06T01:00:31.945Z,92.60
2023-03-06T01:02:59.286Z,92.70
2023-03-06T01:05:26.863Z,92.80
2023-03-06T01:07:56.352Z,92.90
2023-03-06T01:10:24.051Z,92.90
2023-03-06T01:12:51.589Z,93.00
2023-03-06T01:15:18.978Z,93.00
2023-03-06T01:17:46.241Z,93.30
2023-03-06T01:20:15.974Z,93.00
2023-03-06T01:22:43.584Z,93.10
2023-03-06T01:25:11.680Z,93.00
2023-03-06T01:27:39.123Z,93.10
2023-03-06T01:30:07.252Z,93.20
2023-03-06T01:32:34.899Z,93.20
2023-03-06T01:35:04.546Z,93.20
2023-03-06T01:37:31.912Z,93.20
2023-03-06T01:39:59.272Z,93.40
2023-03-06T01:42:26.544Z,93.50
2023-03-06T01:45:15.097Z,93.40
2023-03-06T01:47:44.308Z,93.60
2023-03-06T01:50:12.821Z,93.50
2023-03-06T01:52:50.381Z,93.60
2023-03-06T01:55:25.028Z,93.60
2023-03-06T01:58:01.674Z,94.00
2023-03-06T02:00:29.800Z,93.60
2023-03-06T02:03:13.536Z,93.70
2023-03-06T02:05:42.265Z,93.80
2023-03-06T02:08:11.546Z,93.60
2023-03-06T02:11:09.027Z,93.60
2023-03-06T02:13:40.440Z,93.70
2023-03-06T02:16:11.687Z,93.60
2023-03-06T02:18:41.052Z,93.70
2023-03-06T02:21:20.368Z,93.60
2023-03-06T02:24:25.361Z,93.50
2023-03-06T02:26:54.309Z,93.40
2023-03-06T02:29:25.009Z,93.40
2023-03-06T02:31:54.863Z,93.30
2023-03-06T02:34:22.104Z,93.40
2023-03-06T02:36:52.603Z,93.30
2023-03-06T02:39:24.055Z,93.30
2023-03-06T02:41:52.230Z,93.30
2023-03-06T02:44:21.507Z,93.40
2023-03-06T02:46:48.843Z,93.50
2023-03-06T02:49:16.280Z,93.30
2023-03-06T02:51:43.563Z,93.30
2023-03-06T02:54:12.473Z,93.20
2023-03-06T02:56:41.989Z,93.20
2023-03-06T02:59:11.678Z,93.30
2023-03-06T03:01:39.905Z,93.10
2023-03-06T03:04:10.084Z,93.00
2023-03-06T03:06:39.830Z,93.10
2023-03-06T03:09:07.651Z,93.00
2023-03-06T03:11:35.925Z,93.00
2023-03-06T03:14:03.202Z,92.90
2023-03-06T03:16:30.895Z,92.90
2023-03-06T03:18:59.350Z,92.90
2023-03-06T03:21:27.847Z,92.80
2023-03-06T03:23:56.074Z,92.70
2023-03-06T03:26:28.254Z,93.00
2023-03-06T03:29:05.244Z,92.80
2023-03-06T03:31:32.928Z,92.60
2023-03-06T03:34:04.386Z,92.50
2023-03-06T03:36:35.502Z,92.40
2023-03-06T03:39:04.279Z,92.60
2023-03-06T03:41:32.727Z,92.70
2023-03-06T03:44:04.924Z,92.70
2023-03-06T03:46:34.877Z,92.80
2023-03-06T03:49:03.676Z,93.00
2023-03-06T03:51:32.727Z,92.80
2023-03-06T03:54:00.745Z,92.60
2023-03-06T03:56:34.317Z,92.50
2023-03-06T03:59:08.109Z,92.70
2023-03-06T04:01:46.030Z,92.70
2023-03-06T04:04:14.698Z,92.80
2023-03-06T04:06:44.073Z,92.90
2023-03-06T04:09:11.682Z,92.90
2023-03-06T04:11:39.373Z,92.90
2023-03-06T04:14:08.442Z,92.90
2023-03-06T04:16:36.089Z,92.90
2023-03-06T04:19:03.560Z,92.90
2023-03-06T04:21:31.509Z,92.90
2023-03-06T04:23:58.886Z,92.90
2023-03-06T04:26:26.486Z,92.80
2023-03-06T04:28:55.672Z,92.70
2023-03-06T04:31:23.277Z,92.70
2023-03-06T04:33:55.621Z,93.10
2023-03-06T04:36:34.947Z,93.20
2023-03-06T04:39:07.045Z,93.30
2023-03-06T04:41:35.480Z,93.20
2023-03-06T04:44:03.196Z,93.10
2023-03-06T04:46:30.542Z,93.00
2023-03-06T04:48:58.050Z,92.90
2023-03-06T04:51:25.504Z,92.90
2023-03-06T04:53:52.893Z,93.20
2023-03-06T04:56:20.183Z,93.20
2023-03-06T04:58:47.643Z,93.10
2023-03-06T05:01:15.025Z,93.10
2023-03-06T05:03:42.424Z,92.90
2023-03-06T05:06:09.760Z,93.20
2023-03-06T05:08:37.130Z,93.50
2023-03-06T05:11:07.464Z,93.90
2023-03-06T05:13:34.769Z,94.00
2023-03-06T05:16:06.897Z,94.00
2023-03-06T05:18:35.160Z,93.80
2023-03-06T05:21:08.826Z,94.20
2023-03-06T05:23:38.668Z,94.10
2023-03-06T05:26:11.973Z,94.20
2023-03-06T05:28:42.676Z,94.20
2023-03-06T05:31:12.913Z,94.20
2023-03-06T05:33:42.987Z,94.40
2023-03-06T05:36:10.546Z,94.30
2023-03-06T05:38:37.970Z,94.50
2023-03-06T05:41:06.732Z,94.70
2023-03-06T05:43:34.041Z,94.70
2023-03-06T05:46:06.305Z,94.90
2023-03-06T05:48:35.183Z,94.70
2023-03-06T05:51:02.993Z,95.00
2023-03-06T05:53:31.100Z,95.40
2023-03-06T05:56:11.129Z,95.20
2023-03-06T05:58:41.791Z,95.50
2023-03-06T06:01:16.363Z,95.70
2023-03-06T06:03:44.013Z,95.30
2023-03-06T06:06:14.303Z,95.30
2023-03-06T06:08:42.212Z,95.40
2023-03-06T06:11:10.808Z,95.40
2023-03-06T06:13:39.130Z,95.30
2023-03-06T06:16:16.535Z,95.30
2023-03-06T06:18:44.057Z,95.20
2023-03-06T06:21:14.522Z,95.50
2023-03-06T06:23:42.634Z,95.40
2023-03-06T06:26:10.730Z,95.70
2023-03-06T06:28:38.371Z,95.40
2023-03-06T06:31:12.607Z,95.30
2023-03-06T06:33:44.557Z,95.30
2023-03-06T06:36:20.751Z,95.40
2023-03-06T06:38:48.997Z,95.60
2023-03-06T06:41:39.329Z,95.40
2023-03-06T06:44:14.654Z,95.30
2023-03-06T06:49:39.513Z,94.50
2023-03-06T06:52:13.465Z,94.90
2023-03-06T06:54:40.952Z,94.90
2023-03-06T06:57:12.631Z,94.80
2023-03-06T06:59:39.976Z,95.20
2023-03-06T07:02:07.698Z,94.80
2023-03-06T07:04:46.493Z,94.90
2023-03-06T07:07:25.518Z,95.00
2023-03-06T07:09:53.977Z,95.10
2023-03-06T07:12:21.328Z,95.00
2023-03-06T07:14:52.266Z,94.90
2023-03-06T07:17:22.029Z,94.80
2023-03-06T07:19:49.413Z,94.90
2023-03-06T07:22:16.786Z,94.90
2023-03-06T07:24:44.133Z,94.80
2023-03-06T07:27:11.528Z,94.90
2023-03-06T07:29:41.253Z,95.10
2023-03-06T07:32:08.688Z,94.80
2023-03-06T07:34:36.106Z,94.80
2023-03-06T07:37:03.628Z,94.10
2023-03-06T07:39:34.302Z,94.00
2023-03-06T07:42:01.837Z,94.40
2023-03-06T07:44:29.211Z,94.10
2023-03-06T07:46:56.618Z,93.80
2023-03-06T07:49:24.075Z,93.70
2023-03-06T07:51:51.363Z,93.80
2023-03-06T07:54:18.771Z,93.70
2023-03-06T07:56:52.663Z,93.70
2023-03-06T07:59:22.866Z,93.50
2023-03-06T08:01:50.473Z,93.60
2023-03-06T08:04:17.967Z,93.60
2023-03-06T08:06:45.465Z,93.40
2023-03-06T08:09:12.896Z,93.10
2023-03-06T08:11:40.331Z,92.90
2023-03-06T08:14:07.794Z,92.70
2023-03-06T08:16:35.270Z,92.90
2023-03-06T08:19:05.200Z,92.90
2023-03-06T08:21:32.735Z,92.10
2023-03-06T08:24:00.193Z,92.00
2023-03-06T08:26:30.238Z,91.30
2023-03-06T08:29:01.758Z,91.20
2023-03-06T08:31:33.554Z,91.00
2023-03-06T08:34:04.222Z,90.50
2023-03-06T08:36:31.608Z,90.90
2023-03-06T08:39:00.689Z,90.60
2023-03-06T08:41:28.481Z,90.50
2023-03-06T08:44:01.112Z,90.60
2023-03-06T08:46:29.966Z,90.00
2023-03-06T08:48:58.052Z,89.40
2023-03-06T08:51:26.746Z,88.20
2023-03-06T08:53:54.232Z,87.90
2023-03-06T08:56:30.618Z,87.70
2023-03-06T08:58:59.648Z,87.40
2023-03-06T09:01:36.228Z,86.80
2023-03-06T09:04:06.914Z,87.40
2023-03-06T09:06:37.862Z,85.90
2023-03-06T09:09:11.836Z,84.60
2023-03-06T09:11:40.052Z,84.70
2023-03-06T09:14:07.529Z,83.70
2023-03-06T09:16:35.057Z,83.40
2023-03-06T09:19:03.587Z,82.90
2023-03-06T09:21:32.063Z,82.40
2023-03-06T09:24:00.344Z,83.50
2023-03-06T09:26:43.191Z,81.60
2023-03-06T09:29:12.757Z,80.90
2023-03-06T09:31:42.474Z,80.30
2023-03-06T09:34:09.800Z,80.70
2023-03-06T09:36:55.841Z,80.60
2023-03-06T09:39:26.049Z,81.30
2023-03-06T09:41:56.781Z,80.50
2023-03-06T09:44:27.889Z,79.80
2023-03-06T09:47:10.462Z,81.50
2023-03-06T09:50:11.539Z,81.40
2023-03-06T09:53:11.995Z,80.70
2023-03-06T09:55:46.585Z,80.90
2023-03-06T09:58:23.149Z,80.30
2023-03-06T10:01:35.810Z,81.40
2023-03-06T10:04:28.292Z,80.50
2023-03-06T10:07:18.905Z,79.30
2023-03-06T10:09:54.876Z,80.00
2023-03-06T10:12:28.829Z,79.20
2023-03-06T10:15:10.996Z,79.30
2023-03-06T10:17:43.260Z,78.80
2023-03-06T10:20:18.303Z,79.50
2023-03-06T10:23:03.082Z,79.60
2023-03-06T10:25:59.379Z,78.60
2023-03-06T10:28:26.993Z,78.50
2023-03-06T10:31:00.294Z,79.80
2023-03-06T10:33:47.725Z,79.50
2023-03-06T10:36:20.452Z,79.30
2023-03-06T10:38:48.931Z,78.90
2023-03-06T10:41:29.346Z,78.20
2023-03-06T10:44:06.092Z,77.90
2023-03-06T10:46:38.050Z,79.00
2023-03-06T10:49:21.443Z,78.50
2023-03-06T10:52:15.263Z,78.20
2023-03-06T10:54:47.374Z,77.70
2023-03-06T10:57:25.902Z,78.30
2023-03-06T10:59:58.973Z,78.90
2023-03-06T11:02:38.724Z,79.10
2023-03-06T11:05:17.983Z,78.30
2023-03-06T11:07:59.565Z,78.40
2023-03-06T11:10:30.229Z,79.00
2023-03-06T11:13:03.068Z,79.20
2023-03-06T11:15:32.163Z,79.20
2023-03-06T11:18:23.740Z,78.30
2023-03-06T11:20:54.414Z,79.00
2023-03-06T11:23:47.521Z,78.90
2023-03-06T11:26:27.044Z,78.00
2023-03-06T11:29:10.819Z,79.30
2023-03-06T11:32:09.775Z,78.80
2023-03-06T11:34:58.227Z,78.30
2023-03-06T11:37:57.040Z,76.20
2023-03-06T11:40:32.249Z,76.10
2023-03-06T11:43:08.494Z,75.90
2023-03-06T11:45:47.349Z,75.30
2023-03-06T11:48:15.848Z,75.40
2023-03-06T11:51:23.061Z,76.20
2023-03-06T11:53:50.511Z,76.00
2023-03-06T11:56:27.747Z,76.30
2023-03-06T11:59:27.150Z,75.70
2023-03-06T12:02:06.303Z,76.20
2023-03-06T12:05:03.041Z,75.80
2023-03-06T12:07:35.271Z,74.70
2023-03-06T12:10:31.012Z,74.10
2023-03-06T12:13:20.579Z,74.10
2023-03-06T12:16:12.237Z,74.20
2023-03-06T12:18:55.642Z,73.90
2023-03-06T12:22:15.205Z,73.40
2023-03-06T12:25:05.792Z,73.20
2023-03-06T12:27:56.348Z,73.30
2023-03-06T12:31:04.932Z,72.80
2023-03-06T12:33:52.707Z,72.30
2023-03-06T12:36:20.993Z,72.70
2023-03-06T12:38:57.050Z,73.00
2023-03-06T12:41:46.742Z,73.00
2023-03-06T12:44:39.870Z,73.00
2023-03-06T12:47:13.834Z,72.50
2023-03-06T12:49:45.597Z,73.50
2023-03-06T12:52:29.748Z,73.30
2023-03-06T12:55:01.473Z,72.50
2023-03-06T12:57:31.102Z,72.80
2023-03-06T12:59:58.588Z,72.90
2023-03-06T13:02:36.057Z,72.30
2023-03-06T13:05:34.238Z,70.80
2023-03-06T13:08:21.300Z,71.00
2023-03-06T13:11:19.594Z,71.30
2023-03-06T13:13:48.975Z,70.90
2023-03-06T13:16:23.414Z,70.90
2023-03-06T13:18:56.988Z,71.80
2023-03-06T13:21:42.671Z,71.70
2023-03-06T13:24:21.403Z,72.00
2023-03-06T13:26:53.182Z,72.40
2023-03-06T13:29:48.213Z,72.50
2023-03-06T13:32:19.531Z,72.10
2023-03-06T13:34:50.141Z,72.00
2023-03-06T13:37:17.442Z,72.20
2023-03-06T13:39:55.259Z,71.90
2023-03-06T13:42:28.596Z,72.10
2023-03-06T13:44:58.377Z,72.60
2023-03-06T13:48:01.347Z,72.40
2023-03-06T13:50:41.451Z,72.90
2023-03-06T13:53:59.465Z,73.10
2023-03-06T13:56:50.732Z,73.60
2023-03-06T13:59:57.018Z,72.60
2023-03-06T14:03:05.889Z,73.40
2023-03-06T14:05:50.912Z,73.20
2023-03-06T14:08:19.814Z,73.10
2023-03-06T14:10:49.409Z,73.30
2023-03-06T14:13:23.153Z,73.90
2023-03-06T14:15:53.380Z,73.20
2023-03-06T14:18:40.092Z,73.60
2023-03-06T14:21:13.521Z,74.40
2023-03-06T14:23:43.570Z,75.00
2023-03-06T14:26:20.322Z,76.20
2023-03-06T14:28:53.664Z,76.00
2023-03-06T14:31:23.629Z,76.40
2023-03-06T14:33:56.521Z,76.60
2023-03-06T14:36:25.381Z,77.40
2023-03-06T14:38:57.082Z,79.10
2023-03-06T14:41:33.143Z,80.10
2023-03-06T14:44:18.027Z,80.80
2023-03-06T14:46:47.400Z,81.00
2023-03-06T14:49:19.805Z,81.50
2023-03-06T14:51:57.088Z,81.80
2023-03-06T14:54:37.015Z,82.70
2023-03-06T14:57:08.383Z,83.40
2023-03-06T14:59:49.862Z,83.90
2023-03-06T15:02:27.322Z,84.20
2023-03-06T15:05:28.672Z,84.40
2023-03-06T15:08:00.085Z,84.50
2023-03-06T15:10:30.268Z,84.50
2023-03-06T15:13:18.916Z,85.00
2023-03-06T15:16:22.379Z,84.90
2023-03-06T15:19:07.494Z,85.20
2023-03-06T15:21:39.108Z,85.50
2023-03-06T15:24:27.643Z,85.60
2023-03-06T15:26:57.173Z,85.30
2023-03-06T15:29:29.860Z,85.90
2023-03-06T15:32:28.381Z,85.00
2023-03-06T15:35:27.743Z,84.80
2023-03-06T15:37:56.101Z,84.70
2023-03-06T15:40:29.506Z,84.80
2023-03-06T15:42:58.766Z,84.90
2023-03-06T15:45:28.056Z,84.90
2023-03-06T15:47:56.131Z,84.70
2023-03-06T15:50:28.989Z,83.80
2023-03-06T15:52:56.589Z,83.50
2023-03-06T15:55:26.681Z,83.40
2023-03-06T15:58:03.052Z,83.30
2023-03-06T16:00:38.579Z,84.00
2023-03-06T16:03:06.661Z,85.70
2023-03-06T16:05:34.329Z,86.10
2023-03-06T16:08:02.264Z,86.50
2023-03-06T16:10:31.517Z,87.60
2023-03-06T16:13:09.449Z,87.10
2023-03-06T16:15:48.287Z,87.30
2023-03-06T16:18:16.126Z,87.40
2023-03-06T16:20:48.286Z,87.90
2023-03-06T16:23:17.438Z,88.50
2023-03-06T16:25:48.793Z,88.50
2023-03-06T16:28:17.997Z,89.00
2023-03-06T16:30:46.118Z,89.40
2023-03-06T16:33:14.466Z,89.80
2023-03-06T16:35:46.694Z,90.00
2023-03-06T16:38:17.481Z,90.10
2023-03-06T16:40:45.612Z,90.30
2023-03-06T16:43:13.966Z,90.30
2023-03-06T16:45:42.781Z,90.50
2023-03-06T16:48:17.432Z,90.50
2023-03-06T16:50:45.659Z,90.60
2023-03-06T16:53:13.628Z,90.90
2023-03-06T16:55:41.579Z,90.70
2023-03-06T16:58:09.303Z,90.90
2023-03-06T17:00:37.146Z,90.90
2023-03-06T17:03:05.286Z,91.10
2023-03-06T17:05:38.452Z,91.20
2023-03-06T17:08:09.166Z,91.40
2023-03-06T17:10:42.934Z,91.50
2023-03-06T17:13:11.066Z,91.50
2023-03-06T17:15:39.314Z,91.60
2023-03-06T17:18:07.483Z,91.90
2023-03-06T17:20:35.730Z,92.00
2023-03-06T17:23:03.279Z,92.10
2023-03-06T17:25:31.755Z,92.10
2023-03-06T17:28:02.332Z,92.30
2023-03-06T17:30:31.092Z,92.30
2023-03-06T17:32:58.985Z,92.40
2023-03-06T17:35:30.826Z,92.40
2023-03-06T17:37:58.730Z,92.60
2023-03-06T17:40:26.794Z,92.70
2023-03-06T17:42:57.526Z,92.80
2023-03-06T17:45:28.519Z,92.80
2023-03-06T17:47:57.045Z,93.10
2023-03-06T17:50:28.085Z,93.10
2023-03-06T17:53:00.028Z,93.40
2023-03-06T17:55:29.468Z,93.50
2023-03-06T17:57:57.850Z,93.60
2023-03-06T18:00:38.095Z,93.90
2023-03-06T18:03:06.127Z,94.00
2023-03-06T18:05:34.380Z,94.10
2023-03-06T18:08:02.601Z,94.40
2023-03-06T18:10:31.106Z,94.40
2023-03-06T18:12:59.526Z,94.40
2023-03-06T18:15:30.022Z,94.50
2023-03-06T18:18:01.448Z,94.50
2023-03-06T18:20:31.285Z,94.50
2023-03-06T18:23:04.795Z,94.80
2023-03-06T18:25:39.584Z,94.90
2023-03-06T18:28:11.127Z,94.90
2023-03-06T18:30:42.873Z,95.10
2023-03-06T18:33:14.860Z,95.30
2023-03-06T18:35:44.670Z,95.20
2023-03-06T18:38:13.160Z,95.10
2023-03-06T18:40:42.596Z,95.30
2023-03-06T18:43:11.065Z,95.30
2023-03-06T18:45:38.817Z,95.20
2023-03-06T18:48:07.419Z,95.20
2023-03-06T18:50:35.534Z,95.20
2023-03-06T18:53:04.039Z,95.10
2023-03-06T18:55:35.246Z,95.20
2023-03-06T18:58:09.089Z,95.20
2023-03-06T19:00:37.373Z,95.20
2023-03-06T19:03:05.470Z,95.30
2023-03-06T19:05:33.763Z,95.40
2023-03-06T19:08:02.727Z,95.60
2023-03-06T19:10:37.526Z,95.80
2023-03-06T19:13:09.006Z,96.00
2023-03-06T19:15:46.268Z,96.20
2023-03-06T19:18:17.060Z,96.40
2023-03-06T19:20:47.001Z,96.60
2023-03-06T19:23:15.398Z,96.60
2023-03-06T19:25:43.730Z,96.60
2023-03-06T19:28:11.735Z,96.90
2023-03-06T19:30:43.279Z,97.60
2023-03-06T19:33:15.871Z,98.50
2023-03-06T19:35:44.265Z,99.10
2023-03-06T19:38:15.762Z,99.30
2023-03-06T19:40:51.284Z,99.70
2023-03-06T19:43:19.800Z,99.90
2023-03-06T19:45:48.502Z,99.90
2023-03-06T19:48:20.145Z,99.90
2023-03-06T19:50:50.660Z,99.90
2023-03-06T19:53:23.840Z,99.90
2023-03-06T19:55:52.121Z,99.90
2023-03-06T19:58:20.544Z,99.90
2023-03-06T20:00:51.722Z,99.90
2023-03-06T20:03:19.485Z,99.90
2023-03-06T20:05:48.452Z,99.90
2023-03-06T20:08:17.092Z,99.90
2023-03-06T20:10:45.758Z,99.90
2023-03-06T20:13:15.257Z,99.90
2023-03-06T20:15:47.671Z,99.90
2023-03-06T20:18:17.421Z,99.90
2023-03-06T20:21:00.467Z,99.90
2023-03-06T20:23:30.763Z,99.90
2023-03-06T20:26:06.723Z,99.90
2023-03-06T20:28:36.665Z,99.90
2023-03-06T20:31:18.937Z,99.90
2023-03-06T20:33:49.300Z,99.90
2023-03-06T20:36:32.596Z,99.90
2023-03-06T20:39:03.319Z,99.90
2023-03-06T20:41:35.265Z,99.90
2023-03-06T20:44:09.156Z,99.90
2023-03-06T20:46:40.636Z,99.90
2023-03-06T20:49:09.499Z,99.90
2023-03-06T20:58:14.791Z,99.90
2023-03-06T21:00:46.248Z,99.90
2023-03-06T21:03:16.061Z,99.90
2023-03-06T21:05:50.090Z,99.90
2023-03-06T21:08:18.472Z,99.90
2023-03-06T21:10:55.628Z,99.90
2023-03-06T21:14:09.308Z,99.90
2023-03-06T21:16:48.680Z,99.90
2023-03-06T21:19:21.530Z,99.90
2023-03-06T21:21:50.298Z,99.90
2023-03-06T21:24:21.474Z,99.90
2023-03-06T21:26:52.428Z,99.90
2023-03-06T21:29:19.840Z,99.90
2023-03-06T21:31:47.590Z,99.90
2023-03-06T21:34:16.340Z,99.90
2023-03-06T21:39:46.346Z,99.90
2023-03-06T21:42:13.728Z,99.90
2023-03-06T21:44:41.627Z,99.90
2023-03-06T21:47:09.090Z,99.90
2023-03-06T21:49:36.474Z,99.90
2023-03-06T21:52:03.829Z,99.90
2023-03-06T21:54:31.577Z,99.90
2023-03-06T21:56:58.936Z,99.90
2023-03-06T21:59:27.749Z,99.90
2023-03-06T22:01:55.081Z,99.90
2023-03-06T22:04:24.892Z,99.90
2023-03-06T22:06:52.159Z,99.90
2023-03-06T22:09:20.082Z,99.90
2023-03-06T22:11:48.130Z,99.90
2023-03-06T22:14:15.471Z,99.90
2023-03-06T22:16:43.504Z,99.90
2023-03-06T22:19:10.823Z,99.90
2023-03-06T22:21:41.309Z,99.90
2023-03-06T22:24:09.014Z,99.90
2023-03-06T22:26:39.221Z,99.90
2023-03-06T22:29:09.843Z,99.90
2023-03-06T22:31:40.448Z,99.90
2023-03-06T22:34:07.889Z,99.90
2023-03-06T22:36:35.170Z,99.90
2023-03-06T22:46:55.113Z,99.90
2023-03-06T22:49:22.876Z,99.90
2023-03-06T22:51:50.190Z,99.90
2023-03-06T22:54:17.445Z,99.90
2023-03-06T22:56:44.825Z,99.90
2023-03-06T22:59:12.148Z,99.90
2023-03-06T23:01:42.584Z,99.90
2023-03-06T23:04:11.612Z,99.90
2023-03-06T23:06:41.709Z,99.90
2023-03-06T23:09:20.783Z,99.90
2023-03-06T23:12:07.736Z,99.90
2023-03-06T23:14:53.676Z,99.90
2023-03-06T23:17:39.337Z,99.90
2023-03-06T23:20:26.073Z,99.90
2023-03-06T23:23:13.661Z,99.90
2023-03-06T23:25:41.037Z,99.90
2023-03-06T23:28:08.556Z,99.90
2023-03-06T23:30:38.134Z,99.90
2023-03-06T23:33:05.512Z,99.90
2023-03-06T23:35:34.117Z,99.90
2023-03-06T23:38:05.209Z,99.90
2023-03-06T23:40:33.782Z,99.90
2023-03-06T23:43:01.377Z,99.90
2023-03-06T23:45:32.386Z,99.90
2023-03-06T23:47:59.831Z,99.90
2023-03-06T23:50:27.235Z,99.90
2023-03-06T23:53:04.510Z,99.90
2023-03-06T23:55:31.832Z,99.90
2023-03-06T23:57:59.132Z,99.90
